CheckWX is a tool to help pilots better visualize weather data.  It is not intended as a substitute for an official pre-flight weather briefing.

17:27:57 UTC

KANK METAR
Harriet Alexander Field Airport
Salida, Colorado, USA
Current

33 mins ago

KANK 241655Z AUTO 01003KT 10SM BKN085 07/M05 A3020 RMK AO1 T00741054
Observed
Mar-24 @ 16:55 UTC
Wind
  • 010° at 3 KTS
Visibility
10 SM
Flight Rules
VFR
Cloud Levels
  • Broken at 8,500' AGL
Temperature
C / 45°F
Dewpoint
-5°C / 23°F
Humidity
42%
Altimeter
30.2" Hg
Pressure
1022.72 hPa
Previous

53 mins ago

KANK 241635Z AUTO 01004KT 10SM SCT070 OVC085 06/M05 A3020 RMK AO1 T00571053
Observed
Mar-24 @ 16:35 UTC
Wind
  • 010° at 4 KTS
Visibility
10 SM
Flight Rules
VFR
Cloud Levels
  • Scattered at 7,000' AGL
  • Overcast at 8,500' AGL
Temperature
C / 43°F
Dewpoint
-5°C / 23°F
Humidity
46%
Altimeter
30.2" Hg
Pressure
1022.72 hPa
Previous

1 hour ago

KANK 241615Z AUTO 35004KT 10SM SCT070 BKN095 05/M05 A3021 RMK AO1 T00541052
Observed
Mar-24 @ 16:15 UTC
Wind
  • 350° at 4 KTS
Visibility
10 SM
Flight Rules
VFR
Cloud Levels
  • Scattered at 7,000' AGL
  • Broken at 9,500' AGL
Temperature
C / 41°F
Dewpoint
-5°C / 23°F
Humidity
49%
Altimeter
30.21" Hg
Pressure
1023.02 hPa